KSEP/SEP METAR and TAF weather

Enter ICAO airport designator
Station Type Date Time Source
KSEP METAR 2022/11/30 10:35 UTC NOAA

KSEP 301035Z AUTO 35010G14KT 10SM CLR 01/M04 A3029 RMK AO2 T00051038


Station Type Date Time Source
KSEP Decoded METAR 2022/11/30 10:35 UTC NOAA

Stephenville, Clark Field Municipal Airport, TX, United States (KSEP) 32-13N 098-11W 402M
Nov 30, 2022 - 05:35 AM EST / 2022.11.30 1035 UTC
Wind: from the N (350 degrees) at 12 MPH (10 KT) gusting to 16 MPH (14 KT):0
Visibility: 10 mile(s):0
Sky conditions: clear
Temperature: 32.9 F (0.5 C)
Windchill: 24 F (-4 C):1
Dew Point: 25.2 F (-3.8 C)
Relative Humidity: 72%
Pressure (altimeter): 30.29 in. Hg (1025 hPa)
ob: KSEP 301035Z AUTO 35010G14KT 10SM CLR 01/M04 A3029 RMK AO2 T00051038
cycle: 10

Station Type Date Time Source
KSEP TAF UTC NOAA

Error!

Example: see airport list